Maria Desgagnes — VCWL — position and weather

sailwx.info

Track history (hours):
 
Tides and Currents Weather Stations Pressure Air Temp Water Temp Dewpoint Dewpoint Depression Visibility Wind Speed Wind Dir Waves Ship Positions

Maria Desgagnes

Last reported at 2017-Feb-24 18:00 UTC. Time now 2017-Feb-24 19:29 UTC.
Position N 45°30' W 073°30'.

Length 120 m; draft 9 m.

Type: Ship. MMSI: 316285000.

Wind from 020 at 6 knots

Air temperature 3.4 ° C
Dewpoint 1.7 ° C

Date/timePositionNaut miles runAvg speedWind from/ knotsBaromVisibWave heightAir tempDewpointWater temp
2017-Feb-24 18:00N 45°30' W 073°30'0 0.0 020 / 6 3.4 1.7
2017-Feb-24 17:00N 45°30' W 073°30'0 0.0 040 / 6 3.7 1.0
2017-Feb-24 16:00N 45°30' W 073°30'0 0.0 030 / 5 4.1 0.9
2017-Feb-24 15:00N 45°30' W 073°30'0 0.0 040 / 5 4.2 0.8
2017-Feb-24 14:00N 45°30' W 073°30'0 0.0 050 / 3 4.1 0.9
2017-Feb-24 13:00N 45°30' W 073°30'0 0.0 270 / 2 4.7 1.5
2017-Feb-24 12:00N 45°30' W 073°30'0 0.0 290 / 2 4.6 1.5
2017-Feb-24 11:00N 45°30' W 073°30'0 0.0 310 / 5 5.0 1.7
2017-Feb-24 10:00N 45°30' W 073°30'0 0.0 300 / 4 5.1 1.8
2017-Feb-24 09:00N 45°30' W 073°30'0 0.0 280 / 4 5.2 1.9
2017-Feb-24 08:00N 45°30' W 073°30'0 0.0 270 / 5 5.6 2.4
2017-Feb-24 07:00N 45°30' W 073°30'0 0.0 280 / 6 6.1 3.1
2017-Feb-24 06:00N 45°30' W 073°30'0 0.0 270 / 6 6.6 3.8
2017-Feb-24 05:00N 45°30' W 073°30'0 0.0 270 / 5 7.4 4.5
2017-Feb-24 04:00N 45°30' W 073°30'0 0.0 230 / 4 8.4 5.2
2017-Feb-24 03:00N 45°30' W 073°30'0 0.0 280 / 6 9.4 5.8
2017-Feb-24 02:00N 45°30' W 073°30'0 0.0 270 / 9 10.5 6.5
2017-Feb-24 01:00N 45°30' W 073°30'0 0.0 270 / 11 11.8 7.7
2017-Feb-24 00:00N 45°30' W 073°30'0 0.0 240 / 14 12.8 8.9
2017-Feb-23 23:00N 45°30' W 073°30'0 0.0 230 / 14 12.6 9.6
2017-Feb-23 22:00N 45°30' W 073°30'0 0.0 240 / 14 13.210.3
2017-Feb-23 21:00N 45°30' W 073°30'0 0.0 240 / 17 13.510.3
2017-Feb-23 20:00N 45°30' W 073°30'0 0.0 230 / 14 13.810.3
2017-Feb-23 19:00N 45°30' W 073°30'0 0.0 210 / 8 11.0 7.5
2017-Feb-23 18:00N 45°30' W 073°30'0 0.0 190 / 10 10.6 5.5
2017-Feb-23 17:00N 45°30' W 073°30'0 0.0 180 / 11 9.4 4.6
2017-Feb-23 16:00N 45°30' W 073°30'0 0.0 180 / 12 8.2 4.2
2017-Feb-23 15:00N 45°30' W 073°30'0 0.0 170 / 8 6.6 3.4
2017-Feb-23 14:00N 45°30' W 073°30'0 0.0 180 / 4 5.2 2.8
2017-Feb-23 13:00N 45°30' W 073°30'0 0.0 120 / 2 3.8 1.8
2017-Feb-23 12:00N 45°30' W 073°30'0 0.0 180 / 6 5.5 2.3
2017-Feb-23 11:00N 45°30' W 073°30'0 0.0 070 / 2 2.2 0.7
2017-Feb-23 10:00N 45°30' W 073°30'0 0.0 170 / 1 1.7 0.5
2017-Feb-23 09:00N 45°30' W 073°30'0 0.0 060 / 2 1.2 0.1
2017-Feb-23 08:00N 45°30' W 073°30'0 0.0 040 / 3 1.2-0.0
2017-Feb-23 07:00N 45°30' W 073°30'0 0.0 030 / 4 1.4-0.0
2017-Feb-23 06:00N 45°30' W 073°30'0 0.0 030 / 3 1.6 0.5
2017-Feb-23 05:00N 45°30' W 073°30'0 0.0 040 / 4 1.8 0.5
2017-Feb-23 04:00N 45°30' W 073°30'0 0.0 050 / 2 2.6 0.8
2017-Feb-23 03:00N 45°30' W 073°30'0 0.0 010 / 4 3.7 1.5
2017-Feb-23 02:00N 45°30' W 073°30'0 0.0 050 / 1 3.0 1.3
2017-Feb-23 01:00N 45°30' W 073°30'0 0.0 060 / 1 4.2 1.6
2017-Feb-23 00:00N 45°30' W 073°30'0 0.0 110 / 2 4.4 1.6
2017-Feb-22 23:00N 45°30' W 073°30'0 0.0 160 / 3 5.4 2.0
2017-Feb-22 22:00N 45°30' W 073°30'0 0.0 160 / 2 6.1 2.0
2017-Feb-22 21:00N 45°30' W 073°30'0 0.0 080 / 3 6.2 1.9
2017-Feb-22 20:00N 45°30' W 073°30'6 3.0 050 / 3 5.6 1.7
2017-Feb-22 18:00N 45°36' W 073°30'0 0.0 030 / 31012.4 4.7 1.2
2017-Feb-22 15:00N 45°36' W 073°30'0 0.0 200 / 21014.9 2.8 0.4
2017-Feb-22 12:00N 45°36' W 073°30'0 0.0 270 / 61014.1 2.5-0.6 0.7
2017-Feb-22 09:00N 45°36' W 073°30'0 0.0 190 / 51013.5 1.1-1.5
2017-Feb-22 06:00N 45°36' W 073°30'0 0.0 170 / 21013.6 -0.0-2.7
2017-Feb-22 03:00N 45°36' W 073°30'0 0.0 320 / 31015.0 -0.4-5.0
2017-Feb-22 00:00N 45°36' W 073°30'0 0.0 320 / 31015.6 -0.4-4.7
2017-Feb-21 21:00N 45°36' W 073°30'0 0.0 040 / 71016.4 -1.5-5.7
2017-Feb-21 18:00N 45°36' W 073°30'0 0.0 040 / 71020.0 -2.9-7.3
2017-Feb-21 15:00N 45°36' W 073°30'0 0.0 040 / 51024.5 -5.3-8.6
2017-Feb-21 12:00N 45°36' W 073°30'0 0.0 050 / 41027.4 -6.8-8.0
2017-Feb-21 09:00N 45°36' W 073°30'0 0.0 150 / 21028.2 -5.4-8.2
2017-Feb-21 06:00N 45°36' W 073°30'0 0.0 180 / 31029.1 -3.7-5.9
2017-Feb-21 03:00N 45°36' W 073°30'0 0.0 200 / 21029.9 -1.2-6.7
2017-Feb-21 00:00N 45°36' W 073°30'0 0.0 260 / 71029.0 -0.1-8.0
2017-Feb-20 21:00N 45°36' W 073°30'0 0.0 270 / 21027.2 2.4-9.3
2017-Feb-20 18:00N 45°36' W 073°30'0 0.0 290 / 31027.0 0.4-10.9
2017-Feb-20 15:00N 45°36' W 073°30'0 0.0 340 / 81026.0 -0.5-8.1
2017-Feb-20 12:00N 45°36' W 073°30'0 0.0 320 / 91022.6 -3.3-9.0
2017-Feb-20 09:00N 45°36' W 073°30'0 0.0 310 / 101019.7 -0.7-7.6
2017-Feb-20 06:00N 45°36' W 073°30'0 0.0 310 / 91017.8 1.2-6.0
2017-Feb-20 03:00N 45°36' W 073°30'0 0.0 340 / 121015.2 4.8-2.8
2017-Feb-20 00:00N 45°36' W 073°30'0 0.0 320 / 71012.0 5.4-1.2
2017-Feb-19 21:00N 45°36' W 073°30'0 0.0 300 / 71007.7 7.8 0.7
2017-Feb-19 18:00N 45°36' W 073°30'0 0.0 270 / 81004.8 7.7 1.7
2017-Feb-19 15:00N 45°36' W 073°30'0 0.0 260 / 121002.7 5.5 1.7 0.9
2017-Feb-19 12:00N 45°36' W 073°30'0 0.0 240 / 131001.7 4.3 1.7
2017-Feb-19 09:00N 45°36' W 073°30'0 0.0 250 / 91000.1 5.0 1.7
2017-Feb-19 06:00N 45°36' W 073°30'0 0.0 240 / 15997.6 5.9 1.9
2017-Feb-19 03:00N 45°36' W 073°30'7 2.4 250 / 14995.5 7.2 2.1
2017-Feb-19 00:00N 45°42' W 073°24'29 9.7 250 / 11993.8 5.4-0.6 0.9
2017-Feb-18 21:00N 46°06' W 073°00'24 8.0 210 / 11993.8 3.7-4.2 0.7
2017-Feb-18 18:00N 46°18' W 072°30'3110.2 250 / 6998.6 0.2-7.5 0.6
2017-Feb-18 15:00N 46°36' W 071°54'3110.4 040 / 71004.9 -4.2-7.3 0.5
2017-Feb-18 12:00N 46°48' W 071°12'27 9.1 270 / 61006.8 -6.4-9.1 0.5
2017-Feb-18 09:00N 47°06' W 070°42'20 6.6 260 / 171004.5 -6.7-11.0 0.5
2017-Feb-18 06:00N 47°24' W 070°30'24 7.9 210 / 151004.6 -5.0-7.6 0.1
2017-Feb-18 03:00N 47°36' W 070°00'3411.3 270 / 181002.6 -3.4-12.7-0.1
2017-Feb-18 00:00N 48°06' W 069°36'4113.7 280 / 301001.0 -5.3-11.5-0.5
2017-Feb-17 21:00N 48°36' W 068°54'4314.5 320 / 17996.5 0.3-7.6-0.8
2017-Feb-17 18:00N 48°54' W 067°54'4314.2 320 / 31992.3 -1.2-7.0-0.9
2017-Feb-17 15:00N 49°18' W 067°00'3611.9 320 / 21989.4 -2.0-7.5-1.1
2017-Feb-17 12:00N 49°24' W 066°06'3913.0 320 / 27985.0 -2.2-6.1-1.1
2017-Feb-17 09:00N 49°24' W 065°06'4314.5 330 / 34978.0 -1.9-4.9-1.0
2017-Feb-17 06:00N 49°18' W 064°00'3712.4 350 / 32974.5 -1.9-2.5-1.0
2017-Feb-17 03:00N 49°06' W 063°06'4113.7 360 / 29972.5 -1.0-2.4-0.7
2017-Feb-17 00:00N 48°54' W 062°06'4414.6 050 / 30970.7 -0.8-0.9-0.4
2017-Feb-16 21:00N 48°24' W 061°18'4113.7 050 / 31970.3 -0.5-0.7-0.3
2017-Feb-16 18:00N 47°54' W 060°36'4113.5 070 / 28974.7 -0.4-0.5 0.4
2017-Feb-16 15:00N 47°36' W 059°42'4615.4 090 / 31980.5 -0.7-1.6-0.1
2017-Feb-16 12:00N 47°24' W 058°36'4515.0 070 / 31990.6 -2.1-2.2 1.2
2017-Feb-16 09:00N 47°18' W 057°30'4515.1 080 / 24997.0 -0.6-3.3 1.1
2017-Feb-16 06:00N 47°12' W 056°24'3712.5 050 / 81002.8 -1.2-4.2 1.1
2017-Feb-16 03:00N 46°48' W 055°42'4113.8 330 / 141002.2 -1.0-3.5 0.7
2017-Feb-16 00:00N 46°54' W 054°42'4615.3 300 / 231001.2 0.2-2.8 0.3
2017-Feb-15 21:00N 47°30' W 054°00'18 6.0 330 / 30994.0 0.3-3.0 0.8
2017-Feb-15 18:00N 47°48' W 054°00'0 0.0 330 / 24990.6 -0.0-3.3
2017-Feb-15 15:00N 47°48' W 054°00'0 0.0 340 / 25987.9 -0.0-2.3
2017-Feb-15 12:00N 47°48' W 054°00'0 0.0 350 / 27985.5 -0.5-2.7
2017-Feb-15 09:00N 47°48' W 054°00'0 0.0 360 / 32982.8 -0.4-1.8
2017-Feb-15 06:00N 47°48' W 054°00'0 0.0 020 / 36981.3 -0.4-1.7
2017-Feb-15 03:00N 47°48' W 054°00'0 0.0 030 / 33982.0 -0.6-1.0
2017-Feb-15 00:00N 47°48' W 054°00'0 0.0 040 / 33982.7 -0.8-1.4
2017-Feb-14 21:00N 47°48' W 054°00'   040 / 38983.7 -0.1-0.9
Track history (hours):
 
Tides and Currents Weather Stations Pressure Air Temp Water Temp Dewpoint Dewpoint Depression Visibility Wind Speed Wind Dir Waves Ship Positions

Maria Desgagnes

Last reported at 2017-Feb-24 18:00 UTC. Time now 2017-Feb-24 19:29 UTC.
Position N 45°30' W 073°30'.

Length 120 m; draft 9 m.

Type: Ship. MMSI: 316285000.

Wind from 020 at 6 knots

Air temperature 3.4 ° C
Dewpoint 1.7 ° C

Date/timePositionNaut miles runAvg speedWind from/ knotsBaromVisibWave heightAir tempDewpointWater temp
2017-Feb-24 18:00N 45°30' W 073°30'0 0.0 020 / 6 3.4 1.7
2017-Feb-24 17:00N 45°30' W 073°30'0 0.0 040 / 6 3.7 1.0
2017-Feb-24 16:00N 45°30' W 073°30'0 0.0 030 / 5 4.1 0.9
2017-Feb-24 15:00N 45°30' W 073°30'0 0.0 040 / 5 4.2 0.8
2017-Feb-24 14:00N 45°30' W 073°30'0 0.0 050 / 3 4.1 0.9
2017-Feb-24 13:00N 45°30' W 073°30'0 0.0 270 / 2 4.7 1.5
2017-Feb-24 12:00N 45°30' W 073°30'0 0.0 290 / 2 4.6 1.5
2017-Feb-24 11:00N 45°30' W 073°30'0 0.0 310 / 5 5.0 1.7
2017-Feb-24 10:00N 45°30' W 073°30'0 0.0 300 / 4 5.1 1.8
2017-Feb-24 09:00N 45°30' W 073°30'0 0.0 280 / 4 5.2 1.9
2017-Feb-24 08:00N 45°30' W 073°30'0 0.0 270 / 5 5.6 2.4
2017-Feb-24 07:00N 45°30' W 073°30'0 0.0 280 / 6 6.1 3.1
2017-Feb-24 06:00N 45°30' W 073°30'0 0.0 270 / 6 6.6 3.8
2017-Feb-24 05:00N 45°30' W 073°30'0 0.0 270 / 5 7.4 4.5
2017-Feb-24 04:00N 45°30' W 073°30'0 0.0 230 / 4 8.4 5.2
2017-Feb-24 03:00N 45°30' W 073°30'0 0.0 280 / 6 9.4 5.8
2017-Feb-24 02:00N 45°30' W 073°30'0 0.0 270 / 9 10.5 6.5
2017-Feb-24 01:00N 45°30' W 073°30'0 0.0 270 / 11 11.8 7.7
2017-Feb-24 00:00N 45°30' W 073°30'0 0.0 240 / 14 12.8 8.9
2017-Feb-23 23:00N 45°30' W 073°30'0 0.0 230 / 14 12.6 9.6
2017-Feb-23 22:00N 45°30' W 073°30'0 0.0 240 / 14 13.210.3
2017-Feb-23 21:00N 45°30' W 073°30'0 0.0 240 / 17 13.510.3
2017-Feb-23 20:00N 45°30' W 073°30'0 0.0 230 / 14 13.810.3
2017-Feb-23 19:00N 45°30' W 073°30'0 0.0 210 / 8 11.0 7.5
2017-Feb-23 18:00N 45°30' W 073°30'0 0.0 190 / 10 10.6 5.5
2017-Feb-23 17:00N 45°30' W 073°30'0 0.0 180 / 11 9.4 4.6
2017-Feb-23 16:00N 45°30' W 073°30'0 0.0 180 / 12 8.2 4.2
2017-Feb-23 15:00N 45°30' W 073°30'0 0.0 170 / 8 6.6 3.4
2017-Feb-23 14:00N 45°30' W 073°30'0 0.0 180 / 4 5.2 2.8
2017-Feb-23 13:00N 45°30' W 073°30'0 0.0 120 / 2 3.8 1.8
2017-Feb-23 12:00N 45°30' W 073°30'0 0.0 180 / 6 5.5 2.3
2017-Feb-23 11:00N 45°30' W 073°30'0 0.0 070 / 2 2.2 0.7
2017-Feb-23 10:00N 45°30' W 073°30'0 0.0 170 / 1 1.7 0.5
2017-Feb-23 09:00N 45°30' W 073°30'0 0.0 060 / 2 1.2 0.1
2017-Feb-23 08:00N 45°30' W 073°30'0 0.0 040 / 3 1.2-0.0
2017-Feb-23 07:00N 45°30' W 073°30'0 0.0 030 / 4 1.4-0.0
2017-Feb-23 06:00N 45°30' W 073°30'0 0.0 030 / 3 1.6 0.5
2017-Feb-23 05:00N 45°30' W 073°30'0 0.0 040 / 4 1.8 0.5
2017-Feb-23 04:00N 45°30' W 073°30'0 0.0 050 / 2 2.6 0.8
2017-Feb-23 03:00N 45°30' W 073°30'0 0.0 010 / 4 3.7 1.5
2017-Feb-23 02:00N 45°30' W 073°30'0 0.0 050 / 1 3.0 1.3
2017-Feb-23 01:00N 45°30' W 073°30'0 0.0 060 / 1 4.2 1.6
2017-Feb-23 00:00N 45°30' W 073°30'0 0.0 110 / 2 4.4 1.6
2017-Feb-22 23:00N 45°30' W 073°30'0 0.0 160 / 3 5.4 2.0
2017-Feb-22 22:00N 45°30' W 073°30'0 0.0 160 / 2 6.1 2.0
2017-Feb-22 21:00N 45°30' W 073°30'0 0.0 080 / 3 6.2 1.9
2017-Feb-22 20:00N 45°30' W 073°30'6 3.0 050 / 3 5.6 1.7
2017-Feb-22 18:00N 45°36' W 073°30'0 0.0 030 / 31012.4 4.7 1.2
2017-Feb-22 15:00N 45°36' W 073°30'0 0.0 200 / 21014.9 2.8 0.4
2017-Feb-22 12:00N 45°36' W 073°30'0 0.0 270 / 61014.1 2.5-0.6 0.7
2017-Feb-22 09:00N 45°36' W 073°30'0 0.0 190 / 51013.5 1.1-1.5
2017-Feb-22 06:00N 45°36' W 073°30'0 0.0 170 / 21013.6 -0.0-2.7
2017-Feb-22 03:00N 45°36' W 073°30'0 0.0 320 / 31015.0 -0.4-5.0
2017-Feb-22 00:00N 45°36' W 073°30'0 0.0 320 / 31015.6 -0.4-4.7
2017-Feb-21 21:00N 45°36' W 073°30'0 0.0 040 / 71016.4 -1.5-5.7
2017-Feb-21 18:00N 45°36' W 073°30'0 0.0 040 / 71020.0 -2.9-7.3
2017-Feb-21 15:00N 45°36' W 073°30'0 0.0 040 / 51024.5 -5.3-8.6
2017-Feb-21 12:00N 45°36' W 073°30'0 0.0 050 / 41027.4 -6.8-8.0
2017-Feb-21 09:00N 45°36' W 073°30'0 0.0 150 / 21028.2 -5.4-8.2
2017-Feb-21 06:00N 45°36' W 073°30'0 0.0 180 / 31029.1 -3.7-5.9
2017-Feb-21 03:00N 45°36' W 073°30'0 0.0 200 / 21029.9 -1.2-6.7
2017-Feb-21 00:00N 45°36' W 073°30'0 0.0 260 / 71029.0 -0.1-8.0
2017-Feb-20 21:00N 45°36' W 073°30'0 0.0 270 / 21027.2 2.4-9.3
2017-Feb-20 18:00N 45°36' W 073°30'0 0.0 290 / 31027.0 0.4-10.9
2017-Feb-20 15:00N 45°36' W 073°30'0 0.0 340 / 81026.0 -0.5-8.1
2017-Feb-20 12:00N 45°36' W 073°30'0 0.0 320 / 91022.6 -3.3-9.0
2017-Feb-20 09:00N 45°36' W 073°30'0 0.0 310 / 101019.7 -0.7-7.6
2017-Feb-20 06:00N 45°36' W 073°30'0 0.0 310 / 91017.8 1.2-6.0
2017-Feb-20 03:00N 45°36' W 073°30'0 0.0 340 / 121015.2 4.8-2.8
2017-Feb-20 00:00N 45°36' W 073°30'0 0.0 320 / 71012.0 5.4-1.2
2017-Feb-19 21:00N 45°36' W 073°30'0 0.0 300 / 71007.7 7.8 0.7
2017-Feb-19 18:00N 45°36' W 073°30'0 0.0 270 / 81004.8 7.7 1.7
2017-Feb-19 15:00N 45°36' W 073°30'0 0.0 260 / 121002.7 5.5 1.7 0.9
2017-Feb-19 12:00N 45°36' W 073°30'0 0.0 240 / 131001.7 4.3 1.7
2017-Feb-19 09:00N 45°36' W 073°30'0 0.0 250 / 91000.1 5.0 1.7
2017-Feb-19 06:00N 45°36' W 073°30'0 0.0 240 / 15997.6 5.9 1.9
2017-Feb-19 03:00N 45°36' W 073°30'7 2.4 250 / 14995.5 7.2 2.1
2017-Feb-19 00:00N 45°42' W 073°24'29 9.7 250 / 11993.8 5.4-0.6 0.9
2017-Feb-18 21:00N 46°06' W 073°00'24 8.0 210 / 11993.8 3.7-4.2 0.7
2017-Feb-18 18:00N 46°18' W 072°30'3110.2 250 / 6998.6 0.2-7.5 0.6
2017-Feb-18 15:00N 46°36' W 071°54'3110.4 040 / 71004.9 -4.2-7.3 0.5
2017-Feb-18 12:00N 46°48' W 071°12'27 9.1 270 / 61006.8 -6.4-9.1 0.5
2017-Feb-18 09:00N 47°06' W 070°42'20 6.6 260 / 171004.5 -6.7-11.0 0.5
2017-Feb-18 06:00N 47°24' W 070°30'24 7.9 210 / 151004.6 -5.0-7.6 0.1
2017-Feb-18 03:00N 47°36' W 070°00'3411.3 270 / 181002.6 -3.4-12.7-0.1
2017-Feb-18 00:00N 48°06' W 069°36'4113.7 280 / 301001.0 -5.3-11.5-0.5
2017-Feb-17 21:00N 48°36' W 068°54'4314.5 320 / 17996.5 0.3-7.6-0.8
2017-Feb-17 18:00N 48°54' W 067°54'4314.2 320 / 31992.3 -1.2-7.0-0.9
2017-Feb-17 15:00N 49°18' W 067°00'3611.9 320 / 21989.4 -2.0-7.5-1.1
2017-Feb-17 12:00N 49°24' W 066°06'3913.0 320 / 27985.0 -2.2-6.1-1.1
2017-Feb-17 09:00N 49°24' W 065°06'4314.5 330 / 34978.0 -1.9-4.9-1.0
2017-Feb-17 06:00N 49°18' W 064°00'3712.4 350 / 32974.5 -1.9-2.5-1.0
2017-Feb-17 03:00N 49°06' W 063°06'4113.7 360 / 29972.5 -1.0-2.4-0.7
2017-Feb-17 00:00N 48°54' W 062°06'4414.6 050 / 30970.7 -0.8-0.9-0.4
2017-Feb-16 21:00N 48°24' W 061°18'4113.7 050 / 31970.3 -0.5-0.7-0.3
2017-Feb-16 18:00N 47°54' W 060°36'4113.5 070 / 28974.7 -0.4-0.5 0.4
2017-Feb-16 15:00N 47°36' W 059°42'4615.4 090 / 31980.5 -0.7-1.6-0.1
2017-Feb-16 12:00N 47°24' W 058°36'4515.0 070 / 31990.6 -2.1-2.2 1.2
2017-Feb-16 09:00N 47°18' W 057°30'4515.1 080 / 24997.0 -0.6-3.3 1.1
2017-Feb-16 06:00N 47°12' W 056°24'3712.5 050 / 81002.8 -1.2-4.2 1.1
2017-Feb-16 03:00N 46°48' W 055°42'4113.8 330 / 141002.2 -1.0-3.5 0.7
2017-Feb-16 00:00N 46°54' W 054°42'4615.3 300 / 231001.2 0.2-2.8 0.3
2017-Feb-15 21:00N 47°30' W 054°00'18 6.0 330 / 30994.0 0.3-3.0 0.8
2017-Feb-15 18:00N 47°48' W 054°00'0 0.0 330 / 24990.6 -0.0-3.3
2017-Feb-15 15:00N 47°48' W 054°00'0 0.0 340 / 25987.9 -0.0-2.3
2017-Feb-15 12:00N 47°48' W 054°00'0 0.0 350 / 27985.5 -0.5-2.7
2017-Feb-15 09:00N 47°48' W 054°00'0 0.0 360 / 32982.8 -0.4-1.8
2017-Feb-15 06:00N 47°48' W 054°00'0 0.0 020 / 36981.3 -0.4-1.7
2017-Feb-15 03:00N 47°48' W 054°00'0 0.0 030 / 33982.0 -0.6-1.0
2017-Feb-15 00:00N 47°48' W 054°00'0 0.0 040 / 33982.7 -0.8-1.4
2017-Feb-14 21:00N 47°48' W 054°00'   040 / 38983.7 -0.1-0.9

Dump ship's entire track history